createdAt,value
2023-05-09T00:01:09.864Z,2.43
2023-05-09T00:03:38.452Z,2.13
2023-05-09T00:06:07.238Z,1.50
2023-05-09T00:08:36.291Z,1.98
2023-05-09T00:11:05.790Z,2.45
2023-05-09T00:13:34.749Z,2.23
2023-05-09T00:16:03.484Z,1.90
2023-05-09T00:18:34.085Z,2.02
2023-05-09T00:21:03.967Z,2.20
2023-05-09T00:23:32.653Z,1.70
2023-05-09T00:26:01.483Z,2.07
2023-05-09T00:28:30.841Z,2.47
2023-05-09T00:30:59.434Z,2.03
2023-05-09T00:33:28.012Z,2.10
2023-05-09T00:35:56.543Z,1.90
2023-05-09T00:38:25.433Z,1.80
2023-05-09T00:40:54.204Z,1.70
2023-05-09T00:43:22.595Z,1.87
2023-05-09T00:45:51.332Z,1.70
2023-05-09T00:48:19.755Z,2.27
2023-05-09T00:50:50.034Z,2.07
2023-05-09T00:53:20.505Z,1.77
2023-05-09T00:55:49.019Z,1.80
2023-05-09T00:58:19.476Z,2.27
2023-05-09T01:00:47.954Z,2.50
2023-05-09T01:03:16.724Z,2.17
2023-05-09T01:06:05.817Z,2.17
2023-05-09T01:08:39.057Z,2.30
2023-05-09T01:11:09.042Z,2.53
2023-05-09T01:13:38.839Z,2.67
2023-05-09T01:16:09.237Z,1.98
2023-05-09T01:18:42.767Z,1.32
2023-05-09T01:21:12.738Z,1.87
2023-05-09T01:23:59.134Z,2.20
2023-05-09T01:26:45.248Z,2.33
2023-05-09T01:29:30.181Z,2.50
2023-05-09T01:31:59.158Z,2.00
2023-05-09T01:34:28.117Z,2.27
2023-05-09T01:36:58.655Z,1.90
2023-05-09T01:39:27.770Z,1.80
2023-05-09T01:41:58.333Z,1.80
2023-05-09T01:44:28.501Z,2.27
2023-05-09T01:46:57.821Z,2.43
2023-05-09T01:49:26.903Z,1.97
2023-05-09T01:51:56.726Z,1.92
2023-05-09T01:54:26.285Z,1.85
2023-05-09T01:56:55.516Z,1.53
2023-05-09T01:59:24.417Z,1.77
2023-05-09T02:01:55.002Z,2.07
2023-05-09T02:04:24.144Z,2.10
2023-05-09T02:06:53.183Z,2.00
2023-05-09T02:09:21.819Z,1.70
2023-05-09T02:11:50.820Z,2.10
2023-05-09T02:14:19.086Z,2.30
2023-05-09T02:16:47.847Z,1.93
2023-05-09T02:19:17.412Z,1.93
2023-05-09T02:21:45.964Z,2.17
2023-05-09T02:24:14.802Z,2.02
2023-05-09T02:26:44.070Z,2.00
2023-05-09T02:29:12.832Z,2.10
2023-05-09T02:31:41.996Z,1.93
2023-05-09T02:34:11.503Z,2.37
2023-05-09T02:36:40.543Z,2.37
2023-05-09T02:39:09.019Z,2.23
2023-05-09T02:41:37.512Z,2.10
2023-05-09T02:44:06.072Z,2.10
2023-05-09T02:46:34.847Z,1.95
2023-05-09T02:49:03.391Z,1.90
2023-05-09T02:51:31.974Z,2.03
2023-05-09T02:54:00.441Z,2.70
2023-05-09T02:56:28.957Z,1.33
2023-05-09T02:58:57.447Z,2.00
2023-05-09T03:01:26.205Z,2.60
2023-05-09T03:03:54.747Z,1.90
2023-05-09T03:06:23.529Z,1.90
2023-05-09T03:08:52.298Z,2.45
2023-05-09T03:11:21.940Z,2.70
2023-05-09T03:13:50.694Z,2.05
2023-05-09T03:16:19.098Z,2.33
2023-05-09T03:18:48.241Z,2.22
2023-05-09T03:21:17.078Z,2.00
2023-05-09T03:23:46.804Z,2.40
2023-05-09T03:26:15.560Z,1.92
2023-05-09T03:28:44.560Z,2.47
2023-05-09T03:31:12.912Z,2.27
2023-05-09T03:33:41.437Z,1.93
2023-05-09T03:36:10.321Z,3.10
2023-05-09T03:38:39.485Z,3.03
2023-05-09T03:41:07.881Z,3.00
2023-05-09T03:43:37.116Z,3.30
2023-05-09T03:46:06.068Z,2.43
2023-05-09T03:48:35.722Z,3.43
2023-05-09T03:51:04.440Z,2.70
2023-05-09T03:53:34.226Z,3.00
2023-05-09T03:56:02.773Z,2.93
2023-05-09T03:58:32.952Z,3.07
2023-05-09T04:01:01.750Z,3.23
2023-05-09T04:03:30.969Z,3.40
2023-05-09T04:06:00.187Z,2.83
2023-05-09T04:08:30.705Z,3.12
2023-05-09T04:10:59.793Z,2.40
2023-05-09T04:13:29.948Z,3.10
2023-05-09T04:15:59.364Z,2.62
2023-05-09T04:18:29.238Z,2.63
2023-05-09T04:20:57.758Z,3.33
2023-05-09T04:23:26.280Z,3.30
2023-05-09T04:25:56.798Z,2.67
2023-05-09T04:30:54.542Z,2.55
2023-05-09T04:33:24.225Z,2.70
2023-05-09T04:35:53.143Z,3.40
2023-05-09T04:38:22.579Z,3.63
2023-05-09T04:40:51.556Z,2.50
2023-05-09T04:43:20.020Z,3.37
2023-05-09T04:45:48.515Z,3.20
2023-05-09T04:48:16.950Z,3.10
2023-05-09T04:50:47.138Z,2.93
2023-05-09T04:53:15.499Z,3.27
2023-05-09T04:55:44.830Z,2.97
2023-05-09T04:58:13.270Z,2.53
2023-05-09T05:00:42.727Z,2.20
2023-05-09T05:03:11.514Z,1.53
2023-05-09T05:05:42.008Z,1.90
2023-05-09T05:08:10.646Z,1.57
2023-05-09T05:10:40.298Z,1.93
2023-05-09T05:13:10.529Z,2.20
2023-05-09T05:15:41.552Z,1.57
2023-05-09T05:18:10.188Z,1.63
2023-05-09T05:20:41.426Z,1.50
2023-05-09T05:23:10.181Z,2.00
2023-05-09T05:25:38.931Z,2.30
2023-05-09T05:28:07.266Z,2.93
2023-05-09T05:30:35.921Z,1.90
2023-05-09T05:33:05.269Z,2.17
2023-05-09T05:35:33.805Z,2.33
2023-05-09T05:38:04.629Z,1.93
2023-05-09T05:40:33.200Z,2.07
2023-05-09T05:43:03.684Z,1.85
2023-05-09T05:45:32.675Z,1.97
2023-05-09T05:48:02.983Z,2.02
2023-05-09T05:50:32.027Z,1.60
2023-05-09T05:53:00.868Z,2.40
2023-05-09T05:55:29.459Z,2.67
2023-05-09T05:57:58.297Z,1.98
2023-05-09T06:00:26.980Z,1.77
2023-05-09T06:02:57.370Z,2.00
2023-05-09T06:05:44.349Z,1.93
2023-05-09T06:08:12.860Z,2.03
2023-05-09T06:10:41.766Z,2.00
2023-05-09T06:13:10.326Z,1.90
2023-05-09T06:15:39.975Z,2.07
2023-05-09T06:18:09.043Z,1.80
2023-05-09T06:20:37.720Z,2.00
2023-05-09T06:23:06.236Z,2.00
2023-05-09T06:25:34.692Z,1.93
2023-05-09T06:28:03.461Z,1.60
2023-05-09T06:30:32.021Z,2.13
2023-05-09T06:33:00.902Z,2.55
2023-05-09T06:35:29.748Z,1.77
2023-05-09T06:37:58.537Z,2.10
2023-05-09T06:40:27.119Z,1.43
2023-05-09T06:42:55.677Z,1.80
2023-05-09T06:45:24.228Z,1.67
2023-05-09T06:47:52.800Z,1.70
2023-05-09T06:50:21.020Z,2.03
2023-05-09T06:52:49.494Z,1.60
2023-05-09T06:55:18.101Z,1.57
2023-05-09T06:57:47.062Z,1.15
2023-05-09T07:00:15.902Z,1.13
2023-05-09T07:02:44.395Z,1.30
2023-05-09T07:05:12.872Z,1.70
2023-05-09T07:07:42.032Z,1.32
2023-05-09T07:10:12.335Z,1.20
2023-05-09T07:12:40.711Z,1.57
2023-05-09T07:15:09.753Z,1.17
2023-05-09T07:17:38.650Z,1.20
2023-05-09T07:20:07.826Z,1.70
2023-05-09T07:22:37.644Z,1.30
2023-05-09T07:25:09.573Z,1.30
2023-05-09T07:27:37.992Z,1.63
2023-05-09T07:30:07.162Z,1.20
2023-05-09T07:32:36.251Z,1.00
2023-05-09T07:35:05.658Z,1.43
2023-05-09T07:37:34.808Z,1.07
2023-05-09T07:40:03.386Z,1.57
2023-05-09T07:42:32.730Z,1.17
2023-05-09T07:45:01.513Z,1.23
2023-05-09T07:47:29.988Z,1.13
2023-05-09T07:49:58.802Z,1.22
2023-05-09T07:52:27.309Z,0.93
2023-05-09T07:54:56.079Z,1.07
2023-05-09T07:57:24.633Z,0.90
2023-05-09T07:59:53.114Z,1.03
2023-05-09T08:02:21.469Z,1.00
2023-05-09T08:04:50.298Z,1.15
2023-05-09T08:07:19.095Z,1.40
2023-05-09T08:09:47.960Z,1.20
2023-05-09T08:12:16.141Z,1.10
2023-05-09T08:14:44.977Z,1.30
2023-05-09T08:17:13.203Z,1.07
2023-05-09T08:19:41.927Z,1.15
2023-05-09T08:22:12.252Z,1.17
2023-05-09T08:24:40.910Z,1.03
2023-05-09T08:27:09.273Z,1.00
2023-05-09T08:29:37.862Z,1.33
2023-05-09T08:32:06.448Z,0.77
2023-05-09T08:34:35.579Z,1.17
2023-05-09T08:37:05.327Z,1.10
2023-05-09T08:39:35.181Z,1.53
2023-05-09T08:42:03.798Z,1.00
2023-05-09T08:44:32.582Z,1.32
2023-05-09T08:47:02.956Z,1.27
2023-05-09T08:49:31.435Z,1.20
2023-05-09T08:52:00.459Z,0.63
2023-05-09T08:54:29.337Z,1.37
2023-05-09T08:56:57.818Z,0.87
2023-05-09T08:59:27.000Z,1.05
2023-05-09T09:01:55.702Z,0.80
2023-05-09T09:04:24.270Z,0.60
2023-05-09T09:06:54.519Z,0.98
2023-05-09T09:09:23.088Z,0.83
2023-05-09T09:11:53.257Z,0.80
2023-05-09T09:14:23.873Z,1.05
2023-05-09T09:16:53.273Z,0.87
2023-05-09T09:19:22.911Z,0.77
2023-05-09T09:21:55.036Z,1.02
2023-05-09T09:24:23.820Z,0.90
2023-05-09T09:26:52.630Z,0.90
2023-05-09T09:29:21.334Z,0.70
2023-05-09T09:31:51.691Z,0.62
2023-05-09T09:34:21.628Z,0.80
2023-05-09T09:36:50.446Z,0.97
2023-05-09T09:39:19.258Z,1.20
2023-05-09T09:41:48.912Z,0.80
2023-05-09T09:44:20.706Z,1.03
2023-05-09T09:46:50.668Z,0.70
2023-05-09T09:49:20.690Z,1.00
2023-05-09T09:51:52.830Z,1.03
2023-05-09T10:14:23.930Z,0.70
2023-05-09T10:16:57.228Z,0.80
2023-05-09T10:19:29.615Z,1.10
2023-05-09T10:22:01.979Z,0.43
2023-05-09T10:24:37.509Z,0.80
2023-05-09T10:27:10.076Z,0.90
2023-05-09T10:29:48.573Z,0.83
2023-05-09T10:32:21.460Z,0.70
2023-05-09T10:34:55.502Z,0.70
2023-05-09T10:37:25.972Z,0.70
2023-05-09T10:39:57.621Z,0.88
2023-05-09T10:42:28.452Z,0.70
2023-05-09T10:44:58.975Z,0.95
2023-05-09T10:47:32.037Z,1.07
2023-05-09T10:50:02.972Z,1.00
2023-05-09T10:52:35.823Z,0.90
2023-05-09T10:55:07.423Z,0.80
2023-05-09T10:57:39.977Z,0.65
2023-05-09T11:00:10.679Z,0.80
2023-05-09T11:05:17.530Z,1.00
2023-05-09T11:07:47.797Z,1.00
2023-05-09T11:10:18.929Z,1.10
2023-05-09T11:15:27.957Z,1.50
2023-05-09T11:18:10.178Z,0.98
2023-05-09T11:20:48.498Z,0.90
2023-05-09T11:23:20.234Z,1.00
2023-05-09T11:25:51.281Z,1.00
2023-05-09T11:28:31.690Z,0.63
2023-05-09T11:31:19.127Z,0.83
2023-05-09T11:33:53.267Z,0.90
2023-05-09T11:36:33.236Z,0.78
2023-05-09T11:39:06.276Z,1.63
2023-05-09T11:41:45.532Z,1.03
2023-05-09T11:44:21.300Z,1.00
2023-05-09T11:46:51.418Z,0.77
2023-05-09T11:49:21.488Z,1.00
2023-05-09T11:51:51.326Z,0.87
2023-05-09T11:54:21.302Z,0.90
2023-05-09T11:56:51.443Z,0.50
2023-05-09T11:59:21.566Z,0.97
2023-05-09T12:01:51.411Z,0.83
2023-05-09T12:04:21.250Z,1.23
2023-05-09T12:06:51.255Z,0.80
2023-05-09T12:09:21.133Z,0.83
2023-05-09T12:11:51.200Z,0.80
2023-05-09T12:14:29.313Z,0.97
2023-05-09T12:17:00.049Z,1.07
2023-05-09T12:19:30.056Z,0.62
2023-05-09T12:22:02.017Z,0.73
2023-05-09T12:24:32.451Z,0.80
2023-05-09T12:27:02.678Z,0.83
2023-05-09T12:29:32.998Z,0.68
2023-05-09T12:32:03.530Z,0.93
2023-05-09T12:34:33.374Z,0.90
2023-05-09T12:37:03.810Z,1.10
2023-05-09T12:39:33.783Z,0.83
2023-05-09T12:42:03.594Z,0.83
2023-05-09T12:44:33.988Z,0.93
2023-05-09T12:47:05.604Z,1.10
2023-05-09T12:49:38.405Z,0.97
2023-05-09T12:52:11.302Z,0.80
2023-05-09T12:54:42.593Z,0.73
2023-05-09T12:57:15.158Z,0.70
2023-05-09T12:59:45.430Z,0.83
2023-05-09T13:02:15.093Z,0.67
2023-05-09T13:04:44.997Z,0.87
2023-05-09T13:07:14.720Z,0.60
2023-05-09T13:09:57.234Z,0.70
2023-05-09T13:12:27.328Z,1.10
2023-05-09T13:14:56.885Z,0.63
2023-05-09T13:17:26.657Z,0.80
2023-05-09T13:19:56.506Z,0.83
2023-05-09T13:22:26.740Z,0.70
2023-05-09T13:24:56.981Z,1.13
2023-05-09T13:27:27.840Z,0.60
2023-05-09T13:29:57.664Z,0.68
2023-05-09T13:32:27.574Z,0.77
2023-05-09T13:34:57.423Z,1.40
2023-05-09T13:37:28.195Z,0.80
2023-05-09T13:39:58.171Z,1.00
2023-05-09T13:42:29.318Z,0.88
2023-05-09T13:44:59.162Z,0.90
2023-05-09T13:47:29.030Z,0.53
2023-05-09T13:49:58.928Z,0.70
2023-05-09T13:52:29.032Z,0.70
2023-05-09T13:54:58.882Z,1.10
2023-05-09T13:57:28.692Z,1.23
2023-05-09T13:59:58.584Z,0.43
2023-05-09T14:02:28.768Z,0.63
2023-05-09T14:04:58.976Z,0.50
2023-05-09T14:07:28.559Z,0.83
2023-05-09T14:10:10.918Z,0.90
2023-05-09T14:12:32.004Z,1.20
2023-05-09T14:15:02.212Z,0.87
2023-05-09T14:17:31.828Z,1.07
2023-05-09T14:20:01.835Z,0.90
2023-05-09T14:22:31.620Z,0.93
2023-05-09T14:25:01.748Z,0.75
2023-05-09T14:27:31.913Z,0.70
2023-05-09T14:30:01.860Z,0.90
2023-05-09T14:32:31.700Z,1.00
2023-05-09T14:35:01.526Z,1.00
2023-05-09T14:37:31.844Z,1.00
2023-05-09T14:40:03.127Z,2.57
2023-05-09T14:42:33.851Z,0.70
2023-05-09T14:45:03.697Z,1.67
2023-05-09T14:47:34.358Z,1.10
2023-05-09T14:50:04.526Z,0.90
2023-05-09T14:52:34.399Z,1.00
2023-05-09T14:55:06.156Z,1.33
2023-05-09T14:57:35.992Z,0.97
2023-05-09T15:00:20.330Z,0.80
2023-05-09T15:02:41.984Z,0.70
2023-05-09T15:05:11.788Z,1.10
2023-05-09T15:07:41.802Z,0.90
2023-05-09T15:10:12.102Z,1.26
2023-05-09T15:12:42.000Z,0.77
2023-05-09T15:15:20.516Z,1.10
2023-05-09T15:17:50.920Z,1.20
2023-05-09T15:20:20.898Z,1.23
2023-05-09T15:22:51.551Z,1.60
2023-05-09T15:25:21.798Z,0.80
2023-05-09T15:27:51.900Z,0.88
2023-05-09T15:30:21.787Z,0.93
2023-05-09T15:32:51.370Z,0.80
2023-05-09T15:35:21.204Z,0.93
2023-05-09T15:37:51.216Z,0.90
2023-05-09T15:40:20.877Z,0.70
2023-05-09T15:42:51.182Z,1.00
2023-05-09T15:45:20.766Z,1.17
2023-05-09T15:47:50.624Z,0.70
2023-05-09T15:50:20.243Z,1.20
2023-05-09T15:52:51.721Z,0.77
2023-05-09T15:55:21.689Z,0.60
2023-05-09T15:57:52.684Z,1.20
2023-05-09T16:00:22.549Z,0.50
2023-05-09T16:02:52.715Z,0.77
2023-05-09T16:05:22.678Z,0.80
2023-05-09T16:07:53.676Z,1.07
2023-05-09T16:10:23.480Z,0.80
2023-05-09T16:12:53.729Z,1.40
2023-05-09T16:15:23.348Z,0.60
2023-05-09T16:17:53.188Z,0.70
2023-05-09T16:20:22.934Z,0.67
2023-05-09T16:22:52.767Z,1.00
2023-05-09T16:25:22.553Z,1.00
2023-05-09T16:27:53.536Z,1.00
2023-05-09T16:30:23.335Z,1.00
2023-05-09T16:32:53.225Z,0.83
2023-05-09T16:35:23.208Z,0.70
2023-05-09T16:37:53.010Z,0.87
2023-05-09T16:40:22.638Z,0.93
2023-05-09T16:42:53.655Z,1.13
2023-05-09T16:45:23.464Z,0.70
2023-05-09T16:47:55.435Z,0.80
2023-05-09T16:50:26.282Z,0.83
2023-05-09T16:52:55.872Z,0.80
2023-05-09T16:55:25.882Z,0.60
2023-05-09T16:57:56.059Z,1.05
2023-05-09T17:00:26.115Z,0.83
2023-05-09T17:02:56.238Z,1.07
2023-05-09T17:05:26.251Z,0.93
2023-05-09T17:07:56.139Z,0.87
2023-05-09T17:10:26.123Z,0.57
2023-05-09T17:12:55.811Z,0.67
2023-05-09T17:15:25.842Z,0.83
2023-05-09T17:17:55.848Z,0.90
2023-05-09T17:20:26.269Z,1.00
2023-05-09T17:22:56.808Z,0.90
2023-05-09T17:25:26.642Z,1.63
2023-05-09T17:27:56.759Z,0.85
2023-05-09T17:30:27.018Z,0.70
2023-05-09T17:32:57.176Z,0.68
2023-05-09T17:35:26.999Z,0.80
2023-05-09T17:37:56.806Z,0.80
2023-05-09T17:40:26.690Z,0.50
2023-05-09T17:42:56.500Z,1.03
2023-05-09T17:45:26.776Z,0.70
2023-05-09T17:47:56.403Z,1.10
2023-05-09T17:50:26.237Z,0.80
2023-05-09T17:52:57.060Z,1.00
2023-05-09T17:55:26.906Z,0.90
2023-05-09T17:57:56.704Z,0.90
2023-05-09T18:00:26.622Z,0.83
2023-05-09T18:02:56.496Z,0.90
2023-05-09T18:05:26.893Z,1.20
2023-05-09T18:07:58.084Z,1.03
2023-05-09T18:10:28.932Z,1.00
2023-05-09T18:12:59.227Z,0.97
2023-05-09T18:15:29.342Z,0.98
2023-05-09T18:17:59.410Z,1.10
2023-05-09T18:20:29.702Z,1.30
2023-05-09T18:22:59.512Z,1.00
2023-05-09T18:25:29.402Z,0.87
2023-05-09T18:27:59.207Z,0.77
2023-05-09T18:30:29.085Z,1.23
2023-05-09T18:33:00.844Z,0.85
2023-05-09T18:35:30.572Z,0.98
2023-05-09T18:38:00.354Z,0.87
2023-05-09T18:40:30.162Z,0.93
2023-05-09T18:42:59.950Z,1.10
2023-05-09T18:45:30.857Z,1.67
2023-05-09T18:48:00.916Z,1.07
2023-05-09T18:50:31.511Z,1.03
2023-05-09T18:53:01.295Z,1.03
2023-05-09T18:55:31.261Z,0.80
2023-05-09T18:58:01.366Z,1.10
2023-05-09T19:00:31.170Z,1.17
2023-05-09T19:03:01.017Z,1.27
2023-05-09T19:05:30.937Z,1.17
2023-05-09T19:08:00.876Z,1.53
2023-05-09T19:10:30.892Z,0.97
2023-05-09T19:13:00.533Z,1.00
2023-05-09T19:15:30.332Z,1.03
2023-05-09T19:18:00.270Z,0.80
2023-05-09T19:20:30.183Z,1.07
2023-05-09T19:23:00.307Z,0.97
2023-05-09T19:25:31.557Z,1.10
2023-05-09T19:28:01.486Z,1.45
2023-05-09T19:30:31.567Z,1.22
2023-05-09T19:33:01.448Z,1.17
2023-05-09T19:35:31.330Z,1.20
2023-05-09T19:38:01.438Z,1.30
2023-05-09T19:40:31.613Z,1.15
2023-05-09T19:43:01.513Z,1.67
2023-05-09T19:45:31.745Z,1.57
2023-05-09T19:48:01.550Z,1.13
2023-05-09T19:50:31.420Z,1.30
2023-05-09T19:53:01.560Z,1.40
2023-05-09T19:55:31.419Z,1.50
2023-05-09T19:58:01.234Z,1.77
2023-05-09T20:00:32.141Z,1.10
2023-05-09T20:03:04.070Z,2.03
2023-05-09T20:08:21.608Z,1.13
2023-05-09T20:10:51.452Z,1.30
2023-05-09T20:13:21.211Z,1.97
2023-05-09T20:15:51.279Z,1.10
2023-05-09T20:18:21.131Z,1.50
2023-05-09T20:20:51.125Z,1.80
2023-05-09T20:23:20.984Z,1.10
2023-05-09T20:25:50.838Z,1.03
2023-05-09T20:28:22.400Z,1.33
2023-05-09T20:30:52.237Z,1.40
2023-05-09T20:33:22.151Z,1.50
2023-05-09T20:35:52.007Z,1.37
2023-05-09T20:38:21.618Z,1.80
2023-05-09T20:40:51.472Z,1.20
2023-05-09T20:43:21.315Z,1.07
2023-05-09T20:45:51.931Z,0.83
2023-05-09T20:48:23.431Z,1.10
2023-05-09T20:50:52.976Z,2.05
2023-05-09T20:53:24.478Z,1.07
2023-05-09T20:55:54.754Z,1.57
2023-05-09T20:58:24.615Z,1.47
2023-05-09T21:00:54.565Z,1.10
2023-05-09T21:03:24.460Z,1.10
2023-05-09T21:05:54.582Z,1.47
2023-05-09T21:08:24.508Z,1.47
2023-05-09T21:10:54.584Z,1.10
2023-05-09T21:13:24.459Z,1.40
2023-05-09T21:15:54.431Z,1.17
2023-05-09T21:18:24.145Z,1.30
2023-05-09T21:20:54.721Z,1.12
2023-05-09T21:23:24.368Z,0.93
2023-05-09T21:25:54.223Z,1.10
2023-05-09T21:28:24.050Z,1.37
2023-05-09T21:30:55.157Z,1.30
2023-05-09T21:33:25.275Z,1.17
2023-05-09T21:35:55.380Z,1.63
2023-05-09T21:38:25.266Z,1.53
2023-05-09T21:40:55.406Z,1.50
2023-05-09T21:43:24.971Z,1.07
2023-05-09T21:45:54.813Z,1.17
2023-05-09T21:48:24.445Z,1.93
2023-05-09T21:50:54.315Z,1.30
2023-05-09T21:53:23.946Z,1.17
2023-05-09T21:55:53.805Z,1.53
2023-05-09T21:58:23.343Z,1.10
2023-05-09T22:00:53.198Z,1.47
2023-05-09T22:03:23.303Z,1.30
2023-05-09T22:05:53.588Z,2.05
2023-05-09T22:08:23.727Z,1.80
2023-05-09T22:10:53.565Z,1.20
2023-05-09T22:13:23.294Z,1.17
2023-05-09T22:15:53.464Z,1.17
2023-05-09T22:18:23.150Z,1.83
2023-05-09T22:20:53.020Z,1.67
2023-05-09T22:23:22.713Z,1.23
2023-05-09T22:25:52.547Z,1.30
2023-05-09T22:28:22.323Z,1.00
2023-05-09T22:30:52.239Z,1.60
2023-05-09T22:33:21.964Z,1.63
2023-05-09T22:35:51.816Z,1.57
2023-05-09T22:38:21.675Z,1.10
2023-05-09T22:40:51.718Z,1.30
2023-05-09T22:43:21.332Z,1.90
2023-05-09T22:45:51.148Z,1.17
2023-05-09T22:48:20.666Z,2.00
2023-05-09T22:50:50.627Z,1.40
2023-05-09T22:53:20.150Z,1.33
2023-05-09T22:55:49.977Z,1.50
2023-05-09T22:58:19.555Z,1.67
2023-05-09T23:00:49.401Z,1.63
2023-05-09T23:03:19.217Z,1.17
2023-05-09T23:05:49.087Z,1.40
2023-05-09T23:08:18.896Z,1.30
2023-05-09T23:10:48.682Z,1.07
2023-05-09T23:13:18.837Z,2.10
2023-05-09T23:15:49.116Z,1.77
2023-05-09T23:18:21.356Z,1.62
2023-05-09T23:20:51.611Z,1.57
2023-05-09T23:23:21.494Z,1.67
2023-05-09T23:25:51.363Z,1.23
2023-05-09T23:28:22.757Z,2.20
2023-05-09T23:30:53.864Z,1.80
2023-05-09T23:35:52.130Z,1.52
2023-05-09T23:38:22.424Z,1.70
2023-05-09T23:40:56.137Z,1.55
2023-05-09T23:43:26.351Z,1.70
2023-05-09T23:45:57.830Z,1.77
2023-05-09T23:50:56.403Z,1.60
2023-05-09T23:53:26.462Z,1.50
2023-05-09T23:55:56.366Z,1.43
2023-05-09T23:58:26.239Z,1.80
